Eutaw, North Carolina
Current Conditions -  °F | °C
As of 9:31 PM on Tuesday 21 Oct 2014 (Local Time) from KPOB Reporting Station
Scattered Clouds Scattered Clouds  
Wind Chill: 64°   Ceiling: Unl
Heat Index: 64°   Visibility: 10mi
Dew Point: 46°   Wind: 5mph
Humidity: 52%   Direction: NA
Pressure: 29.92"   Gusts: NA
Location:  35.0916°N, 79.0106°W
Report Text: KPOB 220131Z AUTO VRB04KT 10SM SCT070 SCT095 18/08 A2992 RMK AO2
Loading
Personal Weather Stations






























Interactive Weather Map
Tropical Storm Tracking
New forecast layout! Learn more

10-Day Weather Forecast

Advertisements
Track Severe Weather on mobile